MET'MAP v2.0
soon released !

Expected late october,
this new version will be
more efficient, smarter,
and hosted on a brand new
server x3 powerfull...
...and still free !


Not compatible ?
Try the mobile version !

LOG IN : | Subscribe | Disclaimer | Who is Orbifly ? |
ICAO code :

TAF - LFMC Le Luc - 23 Nov 2019 02:42 UTC
Data Sources :     NOAA   


- Airport Elevation : 265 ft
- No reported NOTAMs.


LFMC - Le Luc

Latest METAR recorded : 2019/11/23 01:30 LFMC 230130Z AUTO 13012KT 100V160 2200 RA BR BKN014/// BKN022/// BKN033/// ///CB 14/13 Q0999
NO TAF


MET'MAP, your aeronautical weather chart ! - Copyright ORBIFLY December 2007

Programming & Development : Alexandra Zaïnal
Co-Developer : Marc-Olivier Méhu
Technical & hardware support : Manuel Goepfert
Concept & Financing : Baudouin d'Aumeries